createdAt,value
2018-09-05T00:02:21.559Z,39.53
2018-09-05T00:04:50.154Z,35.98
2018-09-05T00:07:18.836Z,37.88
2018-09-05T00:09:47.245Z,38.60
2018-09-05T00:12:15.777Z,36.53
2018-09-05T00:14:44.988Z,37.50
2018-09-05T00:17:13.525Z,39.45
2018-09-05T00:19:42.120Z,36.05
2018-09-05T00:22:10.545Z,40.80
2018-09-05T00:24:39.376Z,39.60
2018-09-05T00:27:07.917Z,38.65
2018-09-05T00:29:36.498Z,39.98
2018-09-05T00:32:05.188Z,39.20
2018-09-05T00:34:33.628Z,40.52
2018-09-05T00:37:08.689Z,41.25
2018-09-05T00:39:37.324Z,41.55
2018-09-05T00:42:05.914Z,42.60
2018-09-05T00:44:35.198Z,43.20
2018-09-05T00:47:03.692Z,42.20
2018-09-05T00:49:32.132Z,41.02
2018-09-05T00:52:00.776Z,41.25
2018-09-05T00:54:29.335Z,41.68
2018-09-05T00:56:58.006Z,42.85
2018-09-05T00:59:26.476Z,42.35
2018-09-05T01:01:55.268Z,42.30
2018-09-05T01:04:23.948Z,43.78
2018-09-05T01:06:53.084Z,43.83
2018-09-05T01:09:21.720Z,44.23
2018-09-05T01:11:50.888Z,43.83
2018-09-05T01:14:19.457Z,43.92
2018-09-05T01:16:47.959Z,44.30
2018-09-05T01:19:23.160Z,44.95
2018-09-05T01:21:52.501Z,43.78
2018-09-05T01:24:20.967Z,44.13
2018-09-05T01:26:49.558Z,44.60
2018-09-05T01:29:19.408Z,44.48
2018-09-05T01:31:48.705Z,42.95
2018-09-05T01:34:17.222Z,43.65
2018-09-05T01:36:45.688Z,41.20
2018-09-05T01:39:14.814Z,41.10
2018-09-05T01:41:43.232Z,41.63
2018-09-05T01:44:11.817Z,43.95
2018-09-05T01:46:40.908Z,42.88
2018-09-05T01:49:09.686Z,41.70
2018-09-05T01:51:38.151Z,42.90
2018-09-05T01:54:07.014Z,43.68
2018-09-05T01:56:35.450Z,42.65
2018-09-05T01:59:03.883Z,40.98
2018-09-05T02:01:32.375Z,42.03
2018-09-05T02:04:00.894Z,43.68
2018-09-05T02:06:29.729Z,43.33
2018-09-05T02:08:58.266Z,44.38
2018-09-05T02:11:26.925Z,42.48
2018-09-05T02:13:55.820Z,41.95
2018-09-05T02:16:24.917Z,42.13
2018-09-05T02:18:53.522Z,40.78
2018-09-05T02:21:22.146Z,42.95
2018-09-05T02:23:51.673Z,40.38
2018-09-05T02:26:20.709Z,40.75
2018-09-05T02:28:49.328Z,39.08
2018-09-05T02:31:18.341Z,39.38
2018-09-05T02:33:46.878Z,39.33
2018-09-05T02:36:15.369Z,40.60
2018-09-05T02:38:44.008Z,40.05
2018-09-05T02:41:12.668Z,39.83
2018-09-05T02:43:46.950Z,38.53
2018-09-05T02:46:15.594Z,39.35
2018-09-05T02:48:44.201Z,40.73
2018-09-05T02:51:13.236Z,39.42
2018-09-05T02:53:41.753Z,39.75
2018-09-05T02:56:10.472Z,39.18
2018-09-05T02:58:39.506Z,40.28
2018-09-05T03:01:08.179Z,37.40
2018-09-05T03:03:36.644Z,39.95
2018-09-05T03:06:05.330Z,38.70
2018-09-05T03:08:33.868Z,37.42
2018-09-05T03:11:02.380Z,37.85
2018-09-05T03:13:31.537Z,38.42
2018-09-05T03:16:00.437Z,38.95
2018-09-05T03:18:28.936Z,37.73
2018-09-05T03:20:57.540Z,39.08
2018-09-05T03:23:27.211Z,38.38
2018-09-05T03:25:55.973Z,39.85
2018-09-05T03:28:25.163Z,37.63
2018-09-05T03:30:53.639Z,38.28
2018-09-05T03:33:22.113Z,39.70
2018-09-05T03:35:50.611Z,38.37
2018-09-05T03:38:19.102Z,37.98
2018-09-05T03:40:47.682Z,40.67
2018-09-05T03:43:16.294Z,39.98
2018-09-05T03:45:44.859Z,40.75
2018-09-05T03:48:13.373Z,38.95
2018-09-05T03:50:42.217Z,40.65
2018-09-05T03:53:10.753Z,41.48
2018-09-05T03:55:39.246Z,39.55
2018-09-05T03:58:08.049Z,39.75
2018-09-05T04:00:36.951Z,39.25
2018-09-05T04:03:06.327Z,40.95
2018-09-05T04:05:35.569Z,41.33
2018-09-05T04:08:04.224Z,40.43
2018-09-05T04:10:32.702Z,40.12
2018-09-05T04:13:01.179Z,40.73
2018-09-05T04:15:29.639Z,41.98
2018-09-05T04:17:58.490Z,41.13
2018-09-05T04:20:27.048Z,42.17
2018-09-05T04:22:55.527Z,41.02
2018-09-05T04:25:24.069Z,41.70
2018-09-05T04:27:52.733Z,42.05
2018-09-05T04:30:21.203Z,41.63
2018-09-05T04:32:49.604Z,40.73
2018-09-05T04:35:18.237Z,40.73
2018-09-05T04:37:46.780Z,40.98
2018-09-05T04:40:15.244Z,42.73
2018-09-05T04:42:44.284Z,43.42
2018-09-05T04:45:12.745Z,43.13
2018-09-05T04:47:41.183Z,43.65
2018-09-05T04:50:09.768Z,41.08
2018-09-05T04:52:38.412Z,45.35
2018-09-05T04:55:07.607Z,43.55
2018-09-05T04:57:36.057Z,43.78
2018-09-05T05:00:04.738Z,42.20
2018-09-05T05:02:34.084Z,43.38
2018-09-05T05:05:02.666Z,43.87
2018-09-05T05:07:31.317Z,44.13
2018-09-05T05:10:00.507Z,43.17
2018-09-05T05:12:29.076Z,41.48
2018-09-05T05:14:57.474Z,41.83
2018-09-05T05:17:26.684Z,42.50
2018-09-05T05:19:55.706Z,43.83
2018-09-05T05:22:24.223Z,42.17
2018-09-05T05:24:53.877Z,43.98
2018-09-05T05:27:22.440Z,45.63
2018-09-05T05:29:50.879Z,43.98
2018-09-05T05:32:19.536Z,45.38
2018-09-05T05:34:48.003Z,45.98
2018-09-05T05:37:17.009Z,43.58
2018-09-05T05:39:45.442Z,43.95
2018-09-05T05:42:14.512Z,41.65
2018-09-05T05:44:43.141Z,43.05
2018-09-05T05:47:11.774Z,42.40
2018-09-05T05:49:40.361Z,42.98
2018-09-05T05:52:09.100Z,43.42
2018-09-05T05:54:38.640Z,43.10
2018-09-05T05:57:07.347Z,44.27
2018-09-05T05:59:36.083Z,43.83
2018-09-05T06:02:05.308Z,46.02
2018-09-05T06:04:33.747Z,49.58
2018-09-05T06:07:02.321Z,47.78
2018-09-05T06:09:30.882Z,48.10
2018-09-05T06:11:59.537Z,46.18
2018-09-05T06:14:28.056Z,47.33
2018-09-05T06:16:56.534Z,46.83
2018-09-05T06:19:25.502Z,48.68
2018-09-05T06:21:54.050Z,46.05
2018-09-05T06:24:22.632Z,45.28
2018-09-05T06:26:51.177Z,47.00
2018-09-05T06:29:20.391Z,42.62
2018-09-05T06:31:48.950Z,45.60
2018-09-05T06:34:18.025Z,50.52
2018-09-05T06:36:53.255Z,53.13
2018-09-05T06:39:21.761Z,56.13
2018-09-05T06:41:50.221Z,56.15
2018-09-05T06:44:18.660Z,62.03
2018-09-05T06:46:47.335Z,61.18
2018-09-05T06:49:15.750Z,62.10
2018-09-05T06:51:44.374Z,64.75
2018-09-05T06:54:12.993Z,62.98
2018-09-05T06:56:42.680Z,64.03
2018-09-05T06:59:11.221Z,58.92
2018-09-05T07:01:40.112Z,63.48
2018-09-05T07:04:08.538Z,65.12
2018-09-05T07:06:37.936Z,59.75
2018-09-05T07:09:09.644Z,60.28
2018-09-05T07:11:38.635Z,57.98
2018-09-05T07:14:13.786Z,59.98
2018-09-05T07:16:42.216Z,60.15
2018-09-05T07:19:12.331Z,63.78
2018-09-05T07:21:40.855Z,60.23
2018-09-05T07:24:09.877Z,59.60
2018-09-05T07:26:38.649Z,62.23
2018-09-05T07:29:07.139Z,62.93
2018-09-05T07:31:35.675Z,64.53
2018-09-05T07:34:04.383Z,61.37
2018-09-05T07:36:32.878Z,62.35
2018-09-05T07:39:01.349Z,57.33
2018-09-05T07:41:30.681Z,57.78
2018-09-05T07:43:59.210Z,59.93
2018-09-05T07:46:27.670Z,62.13
2018-09-05T07:48:57.231Z,61.63
2018-09-05T07:51:25.832Z,59.77
2018-09-05T07:53:54.304Z,59.40
2018-09-05T07:56:23.034Z,59.20
2018-09-05T07:58:51.505Z,62.62
2018-09-05T08:01:20.001Z,58.35
2018-09-05T08:03:48.469Z,59.95
2018-09-05T08:06:16.942Z,60.43
2018-09-05T08:08:46.165Z,59.63
2018-09-05T08:11:15.067Z,61.83
2018-09-05T08:13:43.819Z,61.77
2018-09-05T08:16:12.532Z,56.85
2018-09-05T08:18:41.316Z,56.25
2018-09-05T08:21:10.028Z,56.33
2018-09-05T08:23:38.867Z,57.25
2018-09-05T08:26:07.389Z,56.90
2018-09-05T08:28:36.058Z,56.05
2018-09-05T08:31:04.521Z,50.80
2018-09-05T08:33:33.123Z,48.63
2018-09-05T08:36:02.083Z,47.35
2018-09-05T08:38:30.356Z,51.33
2018-09-05T08:40:59.685Z,49.18
2018-09-05T08:43:28.389Z,47.65
2018-09-05T08:45:57.021Z,48.00
2018-09-05T08:48:26.307Z,50.43
2018-09-05T08:50:54.764Z,47.83
2018-09-05T08:53:23.329Z,48.40
2018-09-05T08:55:52.343Z,48.42
2018-09-05T08:58:20.835Z,45.60
2018-09-05T09:00:49.375Z,50.10
2018-09-05T09:03:18.349Z,45.15
2018-09-05T09:05:46.907Z,43.35
2018-09-05T09:08:15.637Z,50.23
2018-09-05T09:10:47.516Z,48.50
2018-09-05T09:13:16.360Z,46.77
2018-09-05T09:15:49.719Z,45.78
2018-09-05T09:18:19.540Z,47.27
2018-09-05T09:20:48.278Z,45.92
2018-09-05T09:23:16.930Z,46.63
2018-09-05T09:25:45.981Z,45.35
2018-09-05T09:28:14.415Z,44.98
2018-09-05T09:30:43.010Z,46.30
2018-09-05T09:33:11.536Z,43.15
2018-09-05T09:35:39.988Z,45.28
2018-09-05T09:38:08.627Z,40.58
2018-09-05T09:40:37.180Z,43.25
2018-09-05T09:43:05.776Z,46.50
2018-09-05T09:45:34.277Z,47.75
2018-09-05T09:48:03.013Z,42.62
2018-09-05T09:50:31.589Z,47.75
2018-09-05T09:53:00.773Z,45.35
2018-09-05T09:55:29.537Z,44.80
2018-09-05T09:57:58.207Z,44.73
2018-09-05T10:00:32.609Z,45.33
2018-09-05T10:03:06.563Z,43.90
2018-09-05T10:05:40.641Z,46.13
2018-09-05T10:08:15.321Z,41.92
2018-09-05T10:10:48.980Z,44.27
2018-09-05T10:13:22.981Z,47.85
2018-09-05T10:15:56.556Z,45.88
2018-09-05T10:18:26.456Z,47.93
2018-09-05T10:20:55.525Z,47.20
2018-09-05T10:23:23.946Z,50.00
2018-09-05T10:25:52.445Z,47.38
2018-09-05T10:28:21.328Z,44.88
2018-09-05T10:30:50.246Z,45.73
2018-09-05T10:33:19.084Z,43.95
2018-09-05T10:35:47.866Z,42.17
2018-09-05T10:38:16.609Z,44.25
2018-09-05T10:40:45.491Z,43.00
2018-09-05T10:43:14.326Z,48.85
2018-09-05T10:45:43.681Z,43.73
2018-09-05T10:48:13.241Z,46.68
2018-09-05T10:50:42.040Z,43.28
2018-09-05T10:53:10.577Z,43.83
2018-09-05T10:55:39.620Z,44.70
2018-09-05T10:58:08.982Z,43.83
2018-09-05T11:00:37.377Z,42.50
2018-09-05T11:03:06.445Z,41.48
2018-09-05T11:05:35.081Z,39.18
2018-09-05T11:08:03.541Z,38.95
2018-09-05T11:10:32.228Z,37.85
2018-09-05T11:13:01.127Z,35.50
2018-09-05T11:15:29.771Z,35.63
2018-09-05T11:17:59.319Z,30.95
2018-09-05T11:20:27.860Z,34.92
2018-09-05T11:22:56.464Z,33.67
2018-09-05T11:25:24.919Z,33.10
2018-09-05T11:27:53.624Z,32.93
2018-09-05T11:30:22.340Z,30.90
2018-09-05T11:32:51.702Z,29.80
2018-09-05T11:35:20.973Z,29.43
2018-09-05T11:37:49.467Z,33.45
2018-09-05T11:40:17.947Z,26.87
2018-09-05T11:42:46.786Z,25.37
2018-09-05T11:45:16.056Z,23.10
2018-09-05T11:47:44.633Z,24.02
2018-09-05T11:50:13.182Z,24.87
2018-09-05T11:52:41.787Z,28.32
2018-09-05T11:55:10.428Z,28.27
2018-09-05T11:57:38.961Z,28.98
2018-09-05T12:00:07.829Z,29.27
2018-09-05T12:02:37.007Z,28.30
2018-09-05T12:05:05.745Z,28.00
2018-09-05T12:07:34.119Z,29.70
2018-09-05T12:10:02.595Z,28.55
2018-09-05T12:12:31.323Z,28.40
2018-09-05T12:14:59.954Z,28.87
2018-09-05T12:17:29.158Z,29.35
2018-09-05T12:19:57.716Z,31.68
2018-09-05T12:22:26.238Z,31.33
2018-09-05T12:24:54.900Z,30.68
2018-09-05T12:27:23.674Z,29.05
2018-09-05T12:29:52.770Z,28.55
2018-09-05T12:32:21.241Z,30.65
2018-09-05T12:34:49.797Z,27.35
2018-09-05T12:37:18.376Z,29.02
2018-09-05T12:39:46.938Z,26.50
2018-09-05T12:42:15.579Z,28.32
2018-09-05T12:44:44.833Z,24.70
2018-09-05T12:47:13.626Z,20.20
2018-09-05T12:49:42.220Z,19.42
2018-09-05T12:52:11.936Z,20.23
2018-09-05T12:54:40.620Z,20.97
2018-09-05T12:57:15.843Z,17.50
2018-09-05T12:59:44.549Z,17.23
2018-09-05T13:02:13.870Z,13.90
2018-09-05T13:04:42.320Z,15.38
2018-09-05T13:07:10.945Z,17.25
2018-09-05T13:09:39.552Z,16.90
2018-09-05T13:12:08.839Z,15.35
2018-09-05T13:14:37.642Z,13.70
2018-09-05T13:17:06.214Z,13.00
2018-09-05T13:19:34.942Z,13.08
2018-09-05T13:22:03.383Z,12.93
2018-09-05T13:24:31.980Z,13.10
2018-09-05T13:27:00.573Z,10.78
2018-09-05T13:29:29.422Z,11.08
2018-09-05T13:31:57.934Z,12.63
2018-09-05T13:34:27.421Z,11.15
2018-09-05T13:36:56.741Z,11.35
2018-09-05T13:39:25.205Z,11.73
2018-09-05T13:41:53.988Z,12.45
2018-09-05T13:44:23.361Z,12.00
2018-09-05T13:46:51.975Z,13.15
2018-09-05T13:49:20.985Z,13.25
2018-09-05T13:51:54.775Z,12.98
2018-09-05T13:54:23.804Z,10.78
2018-09-05T13:56:52.386Z,15.75
2018-09-05T13:59:21.001Z,17.05
2018-09-05T14:01:49.680Z,14.25
2018-09-05T14:04:18.570Z,13.08
2018-09-05T14:06:47.041Z,12.37
2018-09-05T14:09:15.929Z,12.60
2018-09-05T14:11:44.435Z,12.15
2018-09-05T14:14:13.113Z,11.95
2018-09-05T14:16:41.825Z,11.97
2018-09-05T14:19:10.292Z,16.77
2018-09-05T14:21:38.834Z,21.05
2018-09-05T14:24:08.688Z,22.93
2018-09-05T14:26:38.195Z,23.10
2018-09-05T14:29:06.933Z,23.60
2018-09-05T14:31:36.013Z,20.95
2018-09-05T14:34:04.797Z,23.65
2018-09-05T14:36:36.840Z,25.12
2018-09-05T14:39:08.524Z,22.67
2018-09-05T14:41:37.054Z,25.00
2018-09-05T14:44:05.796Z,25.15
2018-09-05T14:46:34.616Z,24.90
2018-09-05T14:49:03.784Z,22.50
2018-09-05T14:51:32.544Z,22.52
2018-09-05T14:54:01.426Z,21.23
2018-09-05T14:56:29.993Z,23.60
2018-09-05T14:59:05.784Z,21.27
2018-09-05T15:01:34.502Z,22.67
2018-09-05T15:04:03.780Z,21.40
2018-09-05T15:06:32.465Z,22.55
2018-09-05T15:09:01.018Z,19.85
2018-09-05T15:11:29.698Z,19.17
2018-09-05T15:13:58.352Z,18.75
2018-09-05T15:16:26.933Z,18.12
2018-09-05T15:18:55.513Z,18.15
2018-09-05T15:21:24.287Z,19.43
2018-09-05T15:23:53.582Z,18.45
2018-09-05T15:26:22.142Z,19.40
2018-09-05T15:28:50.822Z,18.07
2018-09-05T15:31:19.724Z,19.48
2018-09-05T15:33:48.266Z,18.12
2018-09-05T15:36:16.793Z,19.20
2018-09-05T15:38:45.952Z,22.05
2018-09-05T15:41:14.579Z,21.23
2018-09-05T15:43:43.057Z,20.77
2018-09-05T15:46:11.572Z,20.57
2018-09-05T15:48:40.164Z,19.40
2018-09-05T15:51:08.801Z,18.48
2018-09-05T15:53:37.414Z,18.00
2018-09-05T15:56:06.313Z,18.07
2018-09-05T15:58:35.580Z,16.90
2018-09-05T16:01:04.338Z,16.30
2018-09-05T16:03:32.818Z,15.98
2018-09-05T16:06:01.409Z,16.40
2018-09-05T16:08:30.176Z,14.78
2018-09-05T16:10:59.465Z,15.43
2018-09-05T16:13:28.051Z,14.70
2018-09-05T16:15:57.509Z,14.38
2018-09-05T16:18:27.029Z,14.50
2018-09-05T16:20:56.563Z,14.43
2018-09-05T16:23:25.074Z,15.08
2018-09-05T16:25:53.663Z,13.88
2018-09-05T16:28:22.338Z,14.35
2018-09-05T16:30:50.909Z,15.63
2018-09-05T16:33:19.687Z,13.95
2018-09-05T16:35:49.050Z,13.60
2018-09-05T16:38:17.495Z,14.98
2018-09-05T16:40:46.125Z,14.38
2018-09-05T16:43:15.281Z,15.30
2018-09-05T16:45:52.434Z,13.25
2018-09-05T16:48:21.407Z,13.90
2018-09-05T16:50:50.853Z,14.05
2018-09-05T16:53:19.605Z,14.28
2018-09-05T16:55:48.627Z,13.15
2018-09-05T16:58:18.522Z,13.40
2018-09-05T17:00:50.185Z,14.35
2018-09-05T17:03:18.649Z,12.80
2018-09-05T17:05:48.753Z,14.50
2018-09-05T17:08:17.269Z,13.20
2018-09-05T17:10:45.870Z,17.80
2018-09-05T17:13:14.472Z,14.10
2018-09-05T17:15:43.080Z,13.83
2018-09-05T17:18:15.155Z,12.58
2018-09-05T17:20:49.862Z,12.70
2018-09-05T17:23:19.066Z,13.58
2018-09-05T17:25:47.620Z,12.00
2018-09-05T17:28:16.106Z,13.48
2018-09-05T17:30:44.703Z,15.58
2018-09-05T17:33:14.596Z,16.75
2018-09-05T17:35:43.532Z,12.23
2018-09-05T17:38:12.270Z,12.10
2018-09-05T17:40:41.274Z,12.80
2018-09-05T17:43:09.872Z,12.25
2018-09-05T17:45:38.515Z,11.75
2018-09-05T17:48:07.430Z,12.60
2018-09-05T17:50:35.894Z,12.90
2018-09-05T17:53:04.409Z,12.65
2018-09-05T17:55:33.753Z,13.20
2018-09-05T17:58:02.614Z,13.05
2018-09-05T18:00:31.752Z,12.63
2018-09-05T18:03:00.611Z,12.82
2018-09-05T18:05:29.199Z,13.20
2018-09-05T18:08:00.497Z,11.63
2018-09-05T18:10:29.026Z,13.50
2018-09-05T18:12:57.827Z,13.25
2018-09-05T18:15:26.341Z,12.85
2018-09-05T18:17:55.501Z,13.22
2018-09-05T18:20:24.214Z,13.07
2018-09-05T18:22:54.680Z,12.37
2018-09-05T18:25:23.304Z,13.73
2018-09-05T18:27:52.918Z,12.60
2018-09-05T18:30:22.006Z,12.83
2018-09-05T18:32:50.832Z,12.90
2018-09-05T18:35:19.667Z,12.33
2018-09-05T18:37:48.733Z,13.25
2018-09-05T18:40:17.695Z,12.20
2018-09-05T18:42:46.616Z,13.68
2018-09-05T18:45:20.278Z,13.53
2018-09-05T18:47:49.072Z,13.28
2018-09-05T18:50:17.883Z,13.60
2018-09-05T18:52:48.525Z,13.38
2018-09-05T18:55:17.154Z,12.77
2018-09-05T18:57:46.145Z,12.68
2018-09-05T19:00:14.903Z,12.93
2018-09-05T19:02:44.602Z,12.93
2018-09-05T19:05:13.444Z,13.10
2018-09-05T19:07:42.355Z,13.15
2018-09-05T19:10:10.906Z,13.25
2018-09-05T19:12:39.855Z,12.88
2018-09-05T19:15:08.487Z,13.35
2018-09-05T19:17:37.532Z,12.58
2018-09-05T19:20:07.147Z,12.40
2018-09-05T19:22:36.017Z,12.53
2018-09-05T19:25:04.780Z,12.88
2018-09-05T19:27:33.559Z,12.90
2018-09-05T19:30:02.626Z,12.65
2018-09-05T19:32:31.202Z,12.45
2018-09-05T19:35:01.122Z,12.78
2018-09-05T19:37:30.116Z,12.25
2018-09-05T19:39:58.881Z,12.25
2018-09-05T19:42:27.605Z,12.18
2018-09-05T19:44:56.574Z,12.68
2018-09-05T19:47:25.344Z,12.93
2018-09-05T19:49:54.375Z,12.75
2018-09-05T19:52:23.057Z,13.30
2018-09-05T19:54:51.648Z,15.20
2018-09-05T19:57:21.047Z,12.75
2018-09-05T19:59:53.103Z,14.85
2018-09-05T20:02:21.923Z,13.75
2018-09-05T20:04:51.481Z,15.65
2018-09-05T20:07:21.539Z,14.43
2018-09-05T20:09:50.101Z,13.05
2018-09-05T20:12:19.736Z,14.10
2018-09-05T20:14:48.865Z,13.35
2018-09-05T20:17:18.351Z,13.50
2018-09-05T20:19:47.022Z,12.90
2018-09-05T20:22:15.852Z,16.48
2018-09-05T20:24:44.815Z,14.05
2018-09-05T20:27:14.913Z,14.75
2018-09-05T20:29:43.765Z,13.53
2018-09-05T20:32:12.897Z,15.00
2018-09-05T20:34:41.700Z,13.00
2018-09-05T20:37:10.670Z,13.35
2018-09-05T20:39:40.298Z,12.70
2018-09-05T20:42:08.869Z,12.78
2018-09-05T20:44:38.501Z,13.00
2018-09-05T20:47:07.596Z,13.98
2018-09-05T20:49:36.382Z,14.10
2018-09-05T20:52:05.440Z,14.70
2018-09-05T20:54:33.983Z,13.48
2018-09-05T20:57:03.106Z,13.75
2018-09-05T20:59:31.697Z,14.35
2018-09-05T21:02:01.115Z,14.40
2018-09-05T21:04:30.964Z,13.88
2018-09-05T21:07:00.182Z,13.05
2018-09-05T21:09:29.081Z,12.75
2018-09-05T21:11:57.641Z,13.38
2018-09-05T21:14:26.919Z,13.03
2018-09-05T21:16:56.500Z,13.40
2018-09-05T21:19:30.378Z,13.45
2018-09-05T21:21:59.372Z,14.73
2018-09-05T21:24:28.169Z,15.30
2018-09-05T21:26:57.196Z,15.40
2018-09-05T21:29:25.793Z,15.88
2018-09-05T21:31:54.636Z,16.52
2018-09-05T21:34:23.183Z,16.48
2018-09-05T21:36:51.796Z,18.17
2018-09-05T21:39:20.433Z,19.45
2018-09-05T21:41:49.916Z,19.50
2018-09-05T21:44:19.230Z,21.42
2018-09-05T21:46:48.048Z,21.20
2018-09-05T21:49:16.580Z,25.88
2018-09-05T21:51:45.239Z,25.27
2018-09-05T21:54:13.740Z,25.00
2018-09-05T21:56:42.267Z,25.10
2018-09-05T21:59:11.903Z,30.75
2018-09-05T22:01:40.481Z,32.38
2018-09-05T22:04:08.941Z,30.52
2018-09-05T22:06:37.565Z,29.90
2018-09-05T22:09:09.048Z,30.12
2018-09-05T22:11:37.673Z,30.65
2018-09-05T22:14:06.319Z,29.00
2018-09-05T22:16:35.486Z,26.85
2018-09-05T22:19:04.069Z,25.65
2018-09-05T22:21:32.729Z,25.12
2018-09-05T22:24:01.434Z,25.27
2018-09-05T22:26:31.022Z,26.62
2018-09-05T22:28:59.577Z,25.43
2018-09-05T22:31:28.696Z,28.02
2018-09-05T22:33:57.184Z,28.98
2018-09-05T22:36:25.682Z,29.50
2018-09-05T22:38:54.449Z,28.02
2018-09-05T22:41:23.266Z,28.57
2018-09-05T22:44:02.769Z,30.32
2018-09-05T22:46:42.387Z,27.87
2018-09-05T22:51:34.206Z,27.52
2018-09-05T22:56:24.730Z,28.05
2018-09-05T23:00:00.738Z,29.70
2018-09-05T23:02:47.231Z,32.17
2018-09-05T23:05:57.233Z,30.03
2018-09-05T23:08:37.242Z,28.30
2018-09-05T23:11:17.454Z,27.22
2018-09-05T23:14:33.391Z,28.05
2018-09-05T23:19:26.282Z,27.60
2018-09-05T23:21:55.166Z,26.87
2018-09-05T23:24:23.657Z,31.10
2018-09-05T23:26:52.289Z,29.75
2018-09-05T23:29:20.975Z,30.23
2018-09-05T23:31:49.636Z,31.17
2018-09-05T23:34:18.066Z,33.25
2018-09-05T23:36:46.621Z,34.08
2018-09-05T23:39:15.165Z,32.93
2018-09-05T23:41:43.758Z,36.20
2018-09-05T23:44:12.342Z,35.88
2018-09-05T23:46:41.589Z,33.92
2018-09-05T23:49:10.529Z,34.88
2018-09-05T23:51:39.076Z,34.85
2018-09-05T23:54:08.732Z,34.38
2018-09-05T23:56:37.875Z,34.13
2018-09-05T23:59:07.555Z,34.90
